sensor_id;sensor_type;location;lat;lon;timestamp;temperature;humidity
78325;DHT22;67584;51.400;6.692;2024-01-30T00:01:43;8.70;82.70
78325;DHT22;67584;51.400;6.692;2024-01-30T00:04:08;8.80;83.00
78325;DHT22;67584;51.400;6.692;2024-01-30T00:06:34;8.70;82.80
78325;DHT22;67584;51.400;6.692;2024-01-30T00:08:59;8.70;82.70
78325;DHT22;67584;51.400;6.692;2024-01-30T00:11:25;8.60;82.90
78325;DHT22;67584;51.400;6.692;2024-01-30T00:13:52;8.70;82.80
78325;DHT22;67584;51.400;6.692;2024-01-30T00:16:24;8.80;82.80
78325;DHT22;67584;51.400;6.692;2024-01-30T00:18:51;8.60;82.90
78325;DHT22;67584;51.400;6.692;2024-01-30T00:21:18;8.80;82.90
78325;DHT22;67584;51.400;6.692;2024-01-30T00:23:43;8.60;83.00
78325;DHT22;67584;51.400;6.692;2024-01-30T00:26:09;8.80;83.00
78325;DHT22;67584;51.400;6.692;2024-01-30T00:28:35;8.70;83.00
78325;DHT22;67584;51.400;6.692;2024-01-30T00:31:01;8.70;82.90
78325;DHT22;67584;51.400;6.692;2024-01-30T00:33:27;8.60;82.90
78325;DHT22;67584;51.400;6.692;2024-01-30T00:35:52;8.70;83.00
78325;DHT22;67584;51.400;6.692;2024-01-30T00:38:18;8.70;83.20
78325;DHT22;67584;51.400;6.692;2024-01-30T00:40:43;8.70;82.90
78325;DHT22;67584;51.400;6.692;2024-01-30T00:43:09;8.60;83.10
78325;DHT22;67584;51.400;6.692;2024-01-30T00:45:35;8.60;83.00
78325;DHT22;67584;51.400;6.692;2024-01-30T00:48:01;8.60;82.90
78325;DHT22;67584;51.400;6.692;2024-01-30T00:50:26;8.70;82.80
78325;DHT22;67584;51.400;6.692;2024-01-30T00:52:52;8.80;82.80
78325;DHT22;67584;51.400;6.692;2024-01-30T00:55:17;8.70;82.50
78325;DHT22;67584;51.400;6.692;2024-01-30T00:57:43;8.70;82.50
78325;DHT22;67584;51.400;6.692;2024-01-30T01:00:09;8.80;82.50
78325;DHT22;67584;51.400;6.692;2024-01-30T01:02:35;8.70;82.30
78325;DHT22;67584;51.400;6.692;2024-01-30T01:05:02;8.70;82.30
78325;DHT22;67584;51.400;6.692;2024-01-30T01:07:27;8.70;82.40
78325;DHT22;67584;51.400;6.692;2024-01-30T01:09:53;8.80;82.20
78325;DHT22;67584;51.400;6.692;2024-01-30T01:12:19;8.80;82.10
78325;DHT22;67584;51.400;6.692;2024-01-30T01:14:45;8.70;82.10
78325;DHT22;67584;51.400;6.692;2024-01-30T01:17:10;8.70;82.20
78325;DHT22;67584;51.400;6.692;2024-01-30T01:19:36;8.60;82.40
78325;DHT22;67584;51.400;6.692;2024-01-30T01:22:02;8.50;82.40
78325;DHT22;67584;51.400;6.692;2024-01-30T01:24:30;8.60;82.30
78325;DHT22;67584;51.400;6.692;2024-01-30T01:26:56;8.50;82.50
78325;DHT22;67584;51.400;6.692;2024-01-30T01:29:22;8.60;82.70
78325;DHT22;67584;51.400;6.692;2024-01-30T01:31:57;8.40;82.50
78325;DHT22;67584;51.400;6.692;2024-01-30T01:34:23;8.60;82.40
78325;DHT22;67584;51.400;6.692;2024-01-30T01:36:49;8.70;82.40
78325;DHT22;67584;51.400;6.692;2024-01-30T01:39:15;8.60;82.40
78325;DHT22;67584;51.400;6.692;2024-01-30T01:41:41;8.70;82.40
78325;DHT22;67584;51.400;6.692;2024-01-30T01:44:08;8.60;82.30
78325;DHT22;67584;51.400;6.692;2024-01-30T01:46:34;8.50;82.50
78325;DHT22;67584;51.400;6.692;2024-01-30T01:49:04;8.60;82.30
78325;DHT22;67584;51.400;6.692;2024-01-30T01:51:33;8.60;82.40
78325;DHT22;67584;51.400;6.692;2024-01-30T01:54:04;8.40;82.40
78325;DHT22;67584;51.400;6.692;2024-01-30T01:56:31;8.60;82.60
78325;DHT22;67584;51.400;6.692;2024-01-30T01:59:00;8.60;82.60
78325;DHT22;67584;51.400;6.692;2024-01-30T02:01:31;8.50;82.70
78325;DHT22;67584;51.400;6.692;2024-01-30T02:03:58;8.50;82.50
78325;DHT22;67584;51.400;6.692;2024-01-30T02:06:24;8.40;82.40
78325;DHT22;67584;51.400;6.692;2024-01-30T02:08:50;8.60;82.40
78325;DHT22;67584;51.400;6.692;2024-01-30T02:11:16;8.40;82.50
78325;DHT22;67584;51.400;6.692;2024-01-30T02:13:42;8.40;82.80
78325;DHT22;67584;51.400;6.692;2024-01-30T02:16:08;8.50;82.80
78325;DHT22;67584;51.400;6.692;2024-01-30T02:18:33;8.30;82.70
78325;DHT22;67584;51.400;6.692;2024-01-30T02:21:03;8.50;82.60
78325;DHT22;67584;51.400;6.692;2024-01-30T02:23:30;8.30;82.70
78325;DHT22;67584;51.400;6.692;2024-01-30T02:25:56;8.40;83.00
78325;DHT22;67584;51.400;6.692;2024-01-30T02:28:22;8.40;83.00
78325;DHT22;67584;51.400;6.692;2024-01-30T02:30:48;8.40;83.20
78325;DHT22;67584;51.400;6.692;2024-01-30T02:33:13;8.50;82.90
78325;DHT22;67584;51.400;6.692;2024-01-30T02:35:39;8.30;82.80
78325;DHT22;67584;51.400;6.692;2024-01-30T02:38:05;8.40;83.10
78325;DHT22;67584;51.400;6.692;2024-01-30T02:40:31;8.40;83.10
78325;DHT22;67584;51.400;6.692;2024-01-30T02:42:59;8.30;83.30
78325;DHT22;67584;51.400;6.692;2024-01-30T02:45:25;8.20;83.20
78325;DHT22;67584;51.400;6.692;2024-01-30T02:47:51;8.50;83.10
78325;DHT22;67584;51.400;6.692;2024-01-30T02:50:16;8.40;83.00
78325;DHT22;67584;51.400;6.692;2024-01-30T02:52:43;8.30;82.80
78325;DHT22;67584;51.400;6.692;2024-01-30T02:55:11;8.40;83.10
78325;DHT22;67584;51.400;6.692;2024-01-30T02:57:38;8.50;82.90
78325;DHT22;67584;51.400;6.692;2024-01-30T03:00:04;8.50;82.50
78325;DHT22;67584;51.400;6.692;2024-01-30T03:02:32;8.60;82.50
78325;DHT22;67584;51.400;6.692;2024-01-30T03:04:57;8.50;82.50
78325;DHT22;67584;51.400;6.692;2024-01-30T03:07:23;8.40;82.70
78325;DHT22;67584;51.400;6.692;2024-01-30T03:09:49;8.40;82.70
78325;DHT22;67584;51.400;6.692;2024-01-30T03:12:15;8.40;82.70
78325;DHT22;67584;51.400;6.692;2024-01-30T03:14:40;8.30;82.70
78325;DHT22;67584;51.400;6.692;2024-01-30T03:17:06;8.30;82.90
78325;DHT22;67584;51.400;6.692;2024-01-30T03:19:31;8.50;83.00
78325;DHT22;67584;51.400;6.692;2024-01-30T03:21:57;8.50;82.80
78325;DHT22;67584;51.400;6.692;2024-01-30T03:24:23;8.40;82.70
78325;DHT22;67584;51.400;6.692;2024-01-30T03:26:48;8.50;82.70
78325;DHT22;67584;51.400;6.692;2024-01-30T03:29:14;8.40;82.70
78325;DHT22;67584;51.400;6.692;2024-01-30T03:31:41;8.30;82.70
78325;DHT22;67584;51.400;6.692;2024-01-30T03:34:06;8.40;82.60
78325;DHT22;67584;51.400;6.692;2024-01-30T03:36:32;8.30;82.90
78325;DHT22;67584;51.400;6.692;2024-01-30T03:39:01;8.20;82.90
78325;DHT22;67584;51.400;6.692;2024-01-30T03:41:27;8.20;83.10
78325;DHT22;67584;51.400;6.692;2024-01-30T03:43:52;8.30;83.10
78325;DHT22;67584;51.400;6.692;2024-01-30T03:46:18;8.30;83.10
78325;DHT22;67584;51.400;6.692;2024-01-30T03:48:45;8.20;83.20
78325;DHT22;67584;51.400;6.692;2024-01-30T03:51:11;8.20;83.30
78325;DHT22;67584;51.400;6.692;2024-01-30T03:53:42;8.30;83.20
78325;DHT22;67584;51.400;6.692;2024-01-30T03:56:08;8.20;83.10
78325;DHT22;67584;51.400;6.692;2024-01-30T03:58:34;8.10;83.10
78325;DHT22;67584;51.400;6.692;2024-01-30T04:01:00;8.30;83.00
78325;DHT22;67584;51.400;6.692;2024-01-30T04:03:25;8.20;83.00
78325;DHT22;67584;51.400;6.692;2024-01-30T04:05:52;8.10;83.10
78325;DHT22;67584;51.400;6.692;2024-01-30T04:08:18;8.00;83.30
78325;DHT22;67584;51.400;6.692;2024-01-30T04:10:44;7.90;83.50
78325;DHT22;67584;51.400;6.692;2024-01-30T04:13:10;8.00;83.60
78325;DHT22;67584;51.400;6.692;2024-01-30T04:15:35;8.10;83.70
78325;DHT22;67584;51.400;6.692;2024-01-30T04:18:01;8.00;83.90
78325;DHT22;67584;51.400;6.692;2024-01-30T04:20:27;8.10;84.00
78325;DHT22;67584;51.400;6.692;2024-01-30T04:22:53;8.00;83.90
78325;DHT22;67584;51.400;6.692;2024-01-30T04:25:19;7.90;83.70
78325;DHT22;67584;51.400;6.692;2024-01-30T04:27:45;8.10;83.80
78325;DHT22;67584;51.400;6.692;2024-01-30T04:30:10;7.90;83.90
78325;DHT22;67584;51.400;6.692;2024-01-30T04:32:37;8.10;83.80
78325;DHT22;67584;51.400;6.692;2024-01-30T04:35:03;8.00;83.50
78325;DHT22;67584;51.400;6.692;2024-01-30T04:37:29;7.90;83.60
78325;DHT22;67584;51.400;6.692;2024-01-30T04:39:55;7.90;83.70
78325;DHT22;67584;51.400;6.692;2024-01-30T04:42:21;8.00;83.70
78325;DHT22;67584;51.400;6.692;2024-01-30T04:44:46;8.10;83.70
78325;DHT22;67584;51.400;6.692;2024-01-30T04:47:12;8.20;83.70
78325;DHT22;67584;51.400;6.692;2024-01-30T04:49:41;8.10;83.50
78325;DHT22;67584;51.400;6.692;2024-01-30T04:52:07;8.10;83.50
78325;DHT22;67584;51.400;6.692;2024-01-30T04:54:33;8.20;83.30
78325;DHT22;67584;51.400;6.692;2024-01-30T04:57:00;8.20;83.20
78325;DHT22;67584;51.400;6.692;2024-01-30T04:59:25;8.10;82.90
78325;DHT22;67584;51.400;6.692;2024-01-30T05:01:51;8.20;82.90
78325;DHT22;67584;51.400;6.692;2024-01-30T05:04:17;8.10;82.70
78325;DHT22;67584;51.400;6.692;2024-01-30T05:06:43;8.30;82.90
78325;DHT22;67584;51.400;6.692;2024-01-30T05:09:08;8.10;83.00
78325;DHT22;67584;51.400;6.692;2024-01-30T05:11:41;8.20;83.10
78325;DHT22;67584;51.400;6.692;2024-01-30T05:14:07;8.20;83.10
78325;DHT22;67584;51.400;6.692;2024-01-30T05:16:33;8.10;83.30
78325;DHT22;67584;51.400;6.692;2024-01-30T05:18:59;8.00;83.40
78325;DHT22;67584;51.400;6.692;2024-01-30T05:21:24;8.00;83.70
78325;DHT22;67584;51.400;6.692;2024-01-30T05:23:50;8.00;83.60
78325;DHT22;67584;51.400;6.692;2024-01-30T05:26:16;7.90;83.70
78325;DHT22;67584;51.400;6.692;2024-01-30T05:28:42;8.00;83.60
78325;DHT22;67584;51.400;6.692;2024-01-30T05:31:10;7.90;83.70
78325;DHT22;67584;51.400;6.692;2024-01-30T05:33:35;8.00;83.80
78325;DHT22;67584;51.400;6.692;2024-01-30T05:36:01;7.80;83.90
78325;DHT22;67584;51.400;6.692;2024-01-30T05:38:27;7.90;83.90
78325;DHT22;67584;51.400;6.692;2024-01-30T05:40:52;7.80;83.90
78325;DHT22;67584;51.400;6.692;2024-01-30T05:43:18;7.90;83.80
78325;DHT22;67584;51.400;6.692;2024-01-30T05:45:44;7.90;83.90
78325;DHT22;67584;51.400;6.692;2024-01-30T05:48:09;7.80;84.10
78325;DHT22;67584;51.400;6.692;2024-01-30T05:50:35;8.00;84.20
78325;DHT22;67584;51.400;6.692;2024-01-30T05:53:01;8.00;84.20
78325;DHT22;67584;51.400;6.692;2024-01-30T05:55:27;7.80;84.20
78325;DHT22;67584;51.400;6.692;2024-01-30T05:57:53;7.90;84.20
78325;DHT22;67584;51.400;6.692;2024-01-30T06:00:19;7.80;84.20
78325;DHT22;67584;51.400;6.692;2024-01-30T06:02:44;7.80;84.10
78325;DHT22;67584;51.400;6.692;2024-01-30T06:05:10;7.90;84.30
78325;DHT22;67584;51.400;6.692;2024-01-30T06:07:36;8.00;84.10
78325;DHT22;67584;51.400;6.692;2024-01-30T06:10:01;8.10;84.00
78325;DHT22;67584;51.400;6.692;2024-01-30T06:12:29;8.20;83.90
78325;DHT22;67584;51.400;6.692;2024-01-30T06:14:55;8.20;83.90
78325;DHT22;67584;51.400;6.692;2024-01-30T06:17:23;8.20;83.80
78325;DHT22;67584;51.400;6.692;2024-01-30T06:19:49;8.20;83.50
78325;DHT22;67584;51.400;6.692;2024-01-30T06:22:15;8.30;83.20
78325;DHT22;67584;51.400;6.692;2024-01-30T06:24:41;8.30;83.20
78325;DHT22;67584;51.400;6.692;2024-01-30T06:27:06;8.30;83.40
78325;DHT22;67584;51.400;6.692;2024-01-30T06:29:32;8.30;83.20
78325;DHT22;67584;51.400;6.692;2024-01-30T06:31:58;8.50;83.00
78325;DHT22;67584;51.400;6.692;2024-01-30T06:34:23;8.40;83.00
78325;DHT22;67584;51.400;6.692;2024-01-30T06:36:49;8.40;83.00
78325;DHT22;67584;51.400;6.692;2024-01-30T06:39:15;8.20;83.00
78325;DHT22;67584;51.400;6.692;2024-01-30T06:41:41;8.50;83.10
78325;DHT22;67584;51.400;6.692;2024-01-30T06:44:06;8.50;82.90
78325;DHT22;67584;51.400;6.692;2024-01-30T06:46:35;8.60;82.50
78325;DHT22;67584;51.400;6.692;2024-01-30T06:49:00;8.50;82.70
78325;DHT22;67584;51.400;6.692;2024-01-30T06:51:26;8.60;82.50
78325;DHT22;67584;51.400;6.692;2024-01-30T06:53:52;8.40;82.70
78325;DHT22;67584;51.400;6.692;2024-01-30T06:56:18;8.40;82.60
78325;DHT22;67584;51.400;6.692;2024-01-30T06:58:50;8.40;82.60
78325;DHT22;67584;51.400;6.692;2024-01-30T07:01:16;8.40;82.50
78325;DHT22;67584;51.400;6.692;2024-01-30T07:03:42;8.40;82.40
78325;DHT22;67584;51.400;6.692;2024-01-30T07:06:09;8.30;82.40
78325;DHT22;67584;51.400;6.692;2024-01-30T07:08:36;8.50;82.50
78325;DHT22;67584;51.400;6.692;2024-01-30T07:11:04;8.40;82.50
78325;DHT22;67584;51.400;6.692;2024-01-30T07:13:31;8.40;82.60
78325;DHT22;67584;51.400;6.692;2024-01-30T07:15:56;8.40;82.60
78325;DHT22;67584;51.400;6.692;2024-01-30T07:18:22;8.30;82.70
78325;DHT22;67584;51.400;6.692;2024-01-30T07:20:48;8.20;82.70
78325;DHT22;67584;51.400;6.692;2024-01-30T07:23:15;8.50;82.70
78325;DHT22;67584;51.400;6.692;2024-01-30T07:25:46;8.40;82.70
78325;DHT22;67584;51.400;6.692;2024-01-30T07:28:14;8.40;82.60
78325;DHT22;67584;51.400;6.692;2024-01-30T07:30:42;8.50;82.70
78325;DHT22;67584;51.400;6.692;2024-01-30T07:33:08;8.50;82.50
78325;DHT22;67584;51.400;6.692;2024-01-30T07:35:34;8.50;82.70
78325;DHT22;67584;51.400;6.692;2024-01-30T07:38:00;8.50;82.70
78325;DHT22;67584;51.400;6.692;2024-01-30T07:40:26;8.50;82.60
78325;DHT22;67584;51.400;6.692;2024-01-30T07:42:53;8.60;82.50
78325;DHT22;67584;51.400;6.692;2024-01-30T07:45:19;8.40;82.20
78325;DHT22;67584;51.400;6.692;2024-01-30T07:47:50;8.40;82.30
78325;DHT22;67584;51.400;6.692;2024-01-30T07:50:16;8.60;82.20
78325;DHT22;67584;51.400;6.692;2024-01-30T07:52:42;8.60;82.10
78325;DHT22;67584;51.400;6.692;2024-01-30T07:55:08;8.60;82.00
78325;DHT22;67584;51.400;6.692;2024-01-30T07:57:34;8.70;82.00
78325;DHT22;67584;51.400;6.692;2024-01-30T08:00:00;8.70;81.90
78325;DHT22;67584;51.400;6.692;2024-01-30T08:02:26;8.70;81.90
78325;DHT22;67584;51.400;6.692;2024-01-30T08:04:52;8.80;81.80
78325;DHT22;67584;51.400;6.692;2024-01-30T08:07:17;8.70;81.80
78325;DHT22;67584;51.400;6.692;2024-01-30T08:09:43;8.80;81.70
78325;DHT22;67584;51.400;6.692;2024-01-30T08:12:09;8.80;81.70
78325;DHT22;67584;51.400;6.692;2024-01-30T08:14:35;8.90;81.50
78325;DHT22;67584;51.400;6.692;2024-01-30T08:17:01;8.80;81.40
78325;DHT22;67584;51.400;6.692;2024-01-30T08:19:26;9.00;81.50
78325;DHT22;67584;51.400;6.692;2024-01-30T08:21:52;9.00;81.10
78325;DHT22;67584;51.400;6.692;2024-01-30T08:24:18;8.90;81.10
78325;DHT22;67584;51.400;6.692;2024-01-30T08:26:43;9.00;80.80
78325;DHT22;67584;51.400;6.692;2024-01-30T08:29:09;9.20;80.90
78325;DHT22;67584;51.400;6.692;2024-01-30T08:31:35;9.20;80.70
78325;DHT22;67584;51.400;6.692;2024-01-30T08:34:00;9.20;80.60
78325;DHT22;67584;51.400;6.692;2024-01-30T08:36:26;9.20;80.40
78325;DHT22;67584;51.400;6.692;2024-01-30T08:38:52;9.20;80.40
78325;DHT22;67584;51.400;6.692;2024-01-30T08:41:17;9.20;80.30
78325;DHT22;67584;51.400;6.692;2024-01-30T08:43:43;9.30;80.10
78325;DHT22;67584;51.400;6.692;2024-01-30T08:46:10;9.40;80.10
78325;DHT22;67584;51.400;6.692;2024-01-30T08:48:36;9.40;80.00
78325;DHT22;67584;51.400;6.692;2024-01-30T08:51:02;9.40;80.00
78325;DHT22;67584;51.400;6.692;2024-01-30T08:53:28;9.40;79.90
78325;DHT22;67584;51.400;6.692;2024-01-30T08:55:53;9.40;79.90
78325;DHT22;67584;51.400;6.692;2024-01-30T08:58:19;9.40;80.00
78325;DHT22;67584;51.400;6.692;2024-01-30T09:00:45;9.40;80.00
78325;DHT22;67584;51.400;6.692;2024-01-30T09:03:10;9.20;80.00
78325;DHT22;67584;51.400;6.692;2024-01-30T09:05:36;9.30;80.30
78325;DHT22;67584;51.400;6.692;2024-01-30T09:08:02;9.40;80.10
78325;DHT22;67584;51.400;6.692;2024-01-30T09:10:27;9.50;80.20
78325;DHT22;67584;51.400;6.692;2024-01-30T09:12:53;9.50;79.90
78325;DHT22;67584;51.400;6.692;2024-01-30T09:15:19;9.50;79.90
78325;DHT22;67584;51.400;6.692;2024-01-30T09:17:44;9.70;79.50
78325;DHT22;67584;51.400;6.692;2024-01-30T09:20:10;9.70;79.40
78325;DHT22;67584;51.400;6.692;2024-01-30T09:22:37;9.80;79.10
78325;DHT22;67584;51.400;6.692;2024-01-30T09:25:03;9.90;78.80
78325;DHT22;67584;51.400;6.692;2024-01-30T09:27:29;10.00;78.90
78325;DHT22;67584;51.400;6.692;2024-01-30T09:29:55;10.10;78.30
78325;DHT22;67584;51.400;6.692;2024-01-30T09:32:21;10.20;77.70
78325;DHT22;67584;51.400;6.692;2024-01-30T09:34:46;10.20;77.60
78325;DHT22;67584;51.400;6.692;2024-01-30T09:37:12;10.20;77.70
78325;DHT22;67584;51.400;6.692;2024-01-30T09:39:40;10.30;77.70
78325;DHT22;67584;51.400;6.692;2024-01-30T09:42:35;10.30;77.60
78325;DHT22;67584;51.400;6.692;2024-01-30T09:45:02;10.50;77.10
78325;DHT22;67584;51.400;6.692;2024-01-30T09:47:32;10.60;76.70
78325;DHT22;67584;51.400;6.692;2024-01-30T09:49:58;10.70;76.40
78325;DHT22;67584;51.400;6.692;2024-01-30T09:52:24;11.10;76.20
78325;DHT22;67584;51.400;6.692;2024-01-30T09:54:51;11.30;75.20
78325;DHT22;67584;51.400;6.692;2024-01-30T09:57:17;11.30;74.80
78325;DHT22;67584;51.400;6.692;2024-01-30T09:59:43;11.20;75.30
78325;DHT22;67584;51.400;6.692;2024-01-30T10:02:10;11.40;75.20
78325;DHT22;67584;51.400;6.692;2024-01-30T10:04:35;11.50;74.80
78325;DHT22;67584;51.400;6.692;2024-01-30T10:07:04;11.30;74.90
78325;DHT22;67584;51.400;6.692;2024-01-30T10:09:32;11.30;75.30
78325;DHT22;67584;51.400;6.692;2024-01-30T10:11:59;11.20;75.30
78325;DHT22;67584;51.400;6.692;2024-01-30T10:14:24;11.20;75.50
78325;DHT22;67584;51.400;6.692;2024-01-30T10:16:50;11.10;75.80
78325;DHT22;67584;51.400;6.692;2024-01-30T10:19:16;11.00;76.10
78325;DHT22;67584;51.400;6.692;2024-01-30T10:21:42;10.90;76.10
78325;DHT22;67584;51.400;6.692;2024-01-30T10:24:07;10.90;76.50
78325;DHT22;67584;51.400;6.692;2024-01-30T10:26:33;10.80;76.30
78325;DHT22;67584;51.400;6.692;2024-01-30T10:28:59;10.80;76.40
78325;DHT22;67584;51.400;6.692;2024-01-30T10:31:25;10.90;76.30
78325;DHT22;67584;51.400;6.692;2024-01-30T10:33:51;11.10;76.00
78325;DHT22;67584;51.400;6.692;2024-01-30T10:36:17;11.20;76.00
78325;DHT22;67584;51.400;6.692;2024-01-30T10:38:43;11.40;75.30
78325;DHT22;67584;51.400;6.692;2024-01-30T10:41:13;11.50;75.40
78325;DHT22;67584;51.400;6.692;2024-01-30T10:43:41;11.30;75.60
78325;DHT22;67584;51.400;6.692;2024-01-30T10:46:18;11.10;75.90
78325;DHT22;67584;51.400;6.692;2024-01-30T10:48:51;11.10;76.20
78325;DHT22;67584;51.400;6.692;2024-01-30T10:51:22;11.00;76.30
78325;DHT22;67584;51.400;6.692;2024-01-30T10:53:49;11.20;76.20
78325;DHT22;67584;51.400;6.692;2024-01-30T10:56:16;11.40;75.90
78325;DHT22;67584;51.400;6.692;2024-01-30T10:58:42;11.60;75.70
78325;DHT22;67584;51.400;6.692;2024-01-30T11:01:09;11.80;75.30
78325;DHT22;67584;51.400;6.692;2024-01-30T11:03:35;11.90;75.00
78325;DHT22;67584;51.400;6.692;2024-01-30T11:06:02;12.00;74.80
78325;DHT22;67584;51.400;6.692;2024-01-30T11:08:28;12.10;74.70
78325;DHT22;67584;51.400;6.692;2024-01-30T11:10:58;12.10;74.70
78325;DHT22;67584;51.400;6.692;2024-01-30T11:13:31;12.10;74.10
78325;DHT22;67584;51.400;6.692;2024-01-30T11:16:01;12.20;74.30
78325;DHT22;67584;51.400;6.692;2024-01-30T11:18:31;12.10;74.50
78325;DHT22;67584;51.400;6.692;2024-01-30T11:20:58;12.30;74.50
78325;DHT22;67584;51.400;6.692;2024-01-30T11:23:26;12.10;74.70
78325;DHT22;67584;51.400;6.692;2024-01-30T11:25:53;12.00;74.90
78325;DHT22;67584;51.400;6.692;2024-01-30T11:28:18;11.70;75.40
78325;DHT22;67584;51.400;6.692;2024-01-30T11:30:46;11.60;75.60
78325;DHT22;67584;51.400;6.692;2024-01-30T11:33:14;11.50;76.00
78325;DHT22;67584;51.400;6.692;2024-01-30T11:35:44;11.50;76.10
78325;DHT22;67584;51.400;6.692;2024-01-30T11:38:11;11.50;76.00
78325;DHT22;67584;51.400;6.692;2024-01-30T11:40:38;11.60;76.30
78325;DHT22;67584;51.400;6.692;2024-01-30T11:43:05;11.50;76.20
78325;DHT22;67584;51.400;6.692;2024-01-30T11:45:31;11.40;76.40
78325;DHT22;67584;51.400;6.692;2024-01-30T11:47:57;11.50;76.40
78325;DHT22;67584;51.400;6.692;2024-01-30T11:50:25;11.60;76.40
78325;DHT22;67584;51.400;6.692;2024-01-30T11:52:51;11.70;76.40
78325;DHT22;67584;51.400;6.692;2024-01-30T11:55:17;11.80;76.20
78325;DHT22;67584;51.400;6.692;2024-01-30T11:57:44;11.90;76.10
78325;DHT22;67584;51.400;6.692;2024-01-30T12:00:17;12.00;76.00
78325;DHT22;67584;51.400;6.692;2024-01-30T12:02:44;12.10;76.00
78325;DHT22;67584;51.400;6.692;2024-01-30T12:05:14;12.10;75.90
78325;DHT22;67584;51.400;6.692;2024-01-30T12:07:40;12.10;76.00
78325;DHT22;67584;51.400;6.692;2024-01-30T12:10:08;12.00;76.20
78325;DHT22;67584;51.400;6.692;2024-01-30T12:12:35;11.90;76.40
78325;DHT22;67584;51.400;6.692;2024-01-30T12:15:01;12.10;76.40
78325;DHT22;67584;51.400;6.692;2024-01-30T12:17:32;12.10;76.60
78325;DHT22;67584;51.400;6.692;2024-01-30T12:22:40;12.00;76.70
78325;DHT22;67584;51.400;6.692;2024-01-30T12:25:09;12.00;76.90
78325;DHT22;67584;51.400;6.692;2024-01-30T12:27:36;12.00;77.30
78325;DHT22;67584;51.400;6.692;2024-01-30T12:30:08;12.00;77.50
78325;DHT22;67584;51.400;6.692;2024-01-30T12:32:37;12.00;77.80
78325;DHT22;67584;51.400;6.692;2024-01-30T12:35:03;12.00;77.70
78325;DHT22;67584;51.400;6.692;2024-01-30T12:37:30;11.90;78.00
78325;DHT22;67584;51.400;6.692;2024-01-30T12:39:56;12.20;78.30
78325;DHT22;67584;51.400;6.692;2024-01-30T12:42:22;12.00;78.30
78325;DHT22;67584;51.400;6.692;2024-01-30T12:44:48;12.00;78.50
78325;DHT22;67584;51.400;6.692;2024-01-30T12:47:14;12.00;78.50
78325;DHT22;67584;51.400;6.692;2024-01-30T12:49:45;12.00;78.70
78325;DHT22;67584;51.400;6.692;2024-01-30T12:52:11;12.10;78.70
78325;DHT22;67584;51.400;6.692;2024-01-30T12:54:40;12.10;78.80
78325;DHT22;67584;51.400;6.692;2024-01-30T12:57:06;12.20;78.90
78325;DHT22;67584;51.400;6.692;2024-01-30T12:59:31;12.20;79.20
78325;DHT22;67584;51.400;6.692;2024-01-30T13:01:59;12.30;79.20
78325;DHT22;67584;51.400;6.692;2024-01-30T13:04:25;12.30;79.20
78325;DHT22;67584;51.400;6.692;2024-01-30T13:06:52;12.30;79.30
78325;DHT22;67584;51.400;6.692;2024-01-30T13:09:18;12.40;79.40
78325;DHT22;67584;51.400;6.692;2024-01-30T13:11:44;12.50;79.00
78325;DHT22;67584;51.400;6.692;2024-01-30T13:14:09;12.60;78.80
78325;DHT22;67584;51.400;6.692;2024-01-30T13:16:35;12.60;78.80
78325;DHT22;67584;51.400;6.692;2024-01-30T13:19:01;12.60;78.70
78325;DHT22;67584;51.400;6.692;2024-01-30T13:21:27;12.70;78.60
78325;DHT22;67584;51.400;6.692;2024-01-30T13:23:53;12.80;78.60
78325;DHT22;67584;51.400;6.692;2024-01-30T13:26:22;12.90;78.20
78325;DHT22;67584;51.400;6.692;2024-01-30T13:28:48;12.90;78.10
78325;DHT22;67584;51.400;6.692;2024-01-30T13:31:14;12.90;77.80
78325;DHT22;67584;51.400;6.692;2024-01-30T13:33:40;12.90;77.40
78325;DHT22;67584;51.400;6.692;2024-01-30T13:36:10;13.00;77.60
78325;DHT22;67584;51.400;6.692;2024-01-30T13:38:37;13.00;77.30
78325;DHT22;67584;51.400;6.692;2024-01-30T13:41:03;13.00;77.10
78325;DHT22;67584;51.400;6.692;2024-01-30T13:43:29;13.10;77.20
78325;DHT22;67584;51.400;6.692;2024-01-30T13:45:55;13.00;77.00
78325;DHT22;67584;51.400;6.692;2024-01-30T13:48:20;13.00;77.00
78325;DHT22;67584;51.400;6.692;2024-01-30T13:50:47;13.00;77.00
78325;DHT22;67584;51.400;6.692;2024-01-30T13:53:13;13.00;77.00
78325;DHT22;67584;51.400;6.692;2024-01-30T13:55:39;13.10;76.70
78325;DHT22;67584;51.400;6.692;2024-01-30T13:58:05;13.20;76.10
78325;DHT22;67584;51.400;6.692;2024-01-30T14:00:31;13.40;75.70
78325;DHT22;67584;51.400;6.692;2024-01-30T14:02:57;13.30;75.60
78325;DHT22;67584;51.400;6.692;2024-01-30T14:05:24;13.20;75.50
78325;DHT22;67584;51.400;6.692;2024-01-30T14:07:54;13.10;75.60
78325;DHT22;67584;51.400;6.692;2024-01-30T14:10:19;13.10;75.80
78325;DHT22;67584;51.400;6.692;2024-01-30T14:12:45;13.00;76.00
78325;DHT22;67584;51.400;6.692;2024-01-30T14:15:12;12.90;76.20
78325;DHT22;67584;51.400;6.692;2024-01-30T14:17:38;12.90;76.20
78325;DHT22;67584;51.400;6.692;2024-01-30T14:20:04;12.90;76.20
78325;DHT22;67584;51.400;6.692;2024-01-30T14:22:31;12.90;76.10
78325;DHT22;67584;51.400;6.692;2024-01-30T14:24:56;13.00;76.20
78325;DHT22;67584;51.400;6.692;2024-01-30T14:27:22;12.90;76.00
78325;DHT22;67584;51.400;6.692;2024-01-30T14:29:48;12.90;76.10
78325;DHT22;67584;51.400;6.692;2024-01-30T14:32:13;12.80;75.80
78325;DHT22;67584;51.400;6.692;2024-01-30T14:34:39;12.80;75.10
78325;DHT22;67584;51.400;6.692;2024-01-30T14:37:05;13.10;74.80
78325;DHT22;67584;51.400;6.692;2024-01-30T14:39:31;12.90;74.20
78325;DHT22;67584;51.400;6.692;2024-01-30T14:41:58;12.90;74.70
78325;DHT22;67584;51.400;6.692;2024-01-30T14:44:24;12.70;74.80
78325;DHT22;67584;51.400;6.692;2024-01-30T14:46:49;12.60;75.00
78325;DHT22;67584;51.400;6.692;2024-01-30T14:49:15;12.70;74.90
78325;DHT22;67584;51.400;6.692;2024-01-30T14:51:41;12.90;74.30
78325;DHT22;67584;51.400;6.692;2024-01-30T14:54:07;12.90;74.30
78325;DHT22;67584;51.400;6.692;2024-01-30T14:56:33;12.90;74.20
78325;DHT22;67584;51.400;6.692;2024-01-30T14:58:59;12.70;74.50
78325;DHT22;67584;51.400;6.692;2024-01-30T15:01:24;12.60;74.20
78325;DHT22;67584;51.400;6.692;2024-01-30T15:03:50;12.60;73.70
78325;DHT22;67584;51.400;6.692;2024-01-30T15:06:21;12.30;73.80
78325;DHT22;67584;51.400;6.692;2024-01-30T15:08:49;12.20;73.70
78325;DHT22;67584;51.400;6.692;2024-01-30T15:11:15;12.00;73.70
78325;DHT22;67584;51.400;6.692;2024-01-30T15:13:41;12.10;73.60
78325;DHT22;67584;51.400;6.692;2024-01-30T15:16:07;12.10;72.90
78325;DHT22;67584;51.400;6.692;2024-01-30T15:18:33;12.20;72.00
78325;DHT22;67584;51.400;6.692;2024-01-30T15:20:59;12.90;66.60
78325;DHT22;67584;51.400;6.692;2024-01-30T15:23:24;12.90;66.00
78325;DHT22;67584;51.400;6.692;2024-01-30T15:25:50;13.60;62.50
78325;DHT22;67584;51.400;6.692;2024-01-30T15:28:16;14.00;59.70
78325;DHT22;67584;51.400;6.692;2024-01-30T15:30:42;14.30;58.20
78325;DHT22;67584;51.400;6.692;2024-01-30T15:33:09;14.30;57.40
78325;DHT22;67584;51.400;6.692;2024-01-30T15:35:35;14.00;57.50
78325;DHT22;67584;51.400;6.692;2024-01-30T15:38:01;13.60;58.50